Time,TemperatureF,DewpointF,PressureIn,WindDirection,WindDirectionDegrees,WindSpeedMPH,WindSpeedGustMPH,Humidity,HourlyPrecipIn,Conditions,Clouds,dailyrainin,SolarRadiationWatts/m^2,SoftwareType,DateUTC
2013-05-27 00:00:00,59.6,46.2,30.33,NNW,332,0.0,2.0,61,0.00,,SCT,0.00,0.00,VWS V14.01,2013-05-27 04:00:00,
2013-05-27 00:01:00,60.5,44.3,30.33,NNW,332,0.0,0.0,55,0.00,,SCT,0.00,0.00,VWS V14.01,2013-05-27 04:01:00,
2013-05-27 00:06:00,61.0,41.7,30.33,NNW,332,0.0,1.0,49,0.00,,SCT,0.00,0.00,VWS V14.01,2013-05-27 04:06:00,
2013-05-27 00:11:00,60.3,41.6,30.33,NNW,332,1.0,3.0,50,0.00,,SCT,0.00,0.00,VWS V14.01,2013-05-27 04:11:00,
2013-05-27 00:16:00,59.9,41.2,30.33,NNW,332,0.0,3.0,50,0.00,,SCT,0.00,0.00,VWS V14.01,2013-05-27 04:16:00,
2013-05-27 00:21:00,60.0,41.3,30.33,NNW,332,0.0,3.0,50,0.00,,SCT,0.00,0.00,VWS V14.01,2013-05-27 04:21:00,
2013-05-27 00:26:00,59.4,43.2,30.34,NNW,332,0.0,3.0,55,0.00,,SCT,0.00,0.00,VWS V14.01,2013-05-27 04:26:00,
2013-05-27 00:31:00,57.6,45.5,30.34,NNW,332,0.0,3.0,64,0.00,,SCT,0.00,0.00,VWS V14.01,2013-05-27 04:31:00,
2013-05-27 00:36:00,56.2,43.0,30.34,NNW,332,0.0,3.0,61,0.00,,SCT,0.00,0.00,VWS V14.01,2013-05-27 04:36:00,
2013-05-27 00:41:00,56.3,43.9,30.34,NNW,332,0.0,3.0,63,0.00,,SCT,0.00,0.00,VWS V14.01,2013-05-27 04:41:00,
2013-05-27 00:46:00,56.4,42.7,30.34,NNW,332,0.0,3.0,60,0.00,,SCT,0.00,0.00,VWS V14.01,2013-05-27 04:46:00,
2013-05-27 00:51:00,56.2,45.4,30.35,NNW,332,0.0,3.0,67,0.00,,SCT,0.00,0.00,VWS V14.01,2013-05-27 04:51:00,
2013-05-27 00:56:00,55.9,44.7,30.35,NNW,332,0.0,0.0,66,0.00,,SCT,0.00,0.00,VWS V14.01,2013-05-27 04:56:00,
2013-05-27 01:00:00,56.1,44.5,30.35,NNW,332,0.0,3.0,65,0.00,,SCT,0.00,0.00,VWS V14.01,2013-05-27 05:00:00,
2013-05-27 01:01:00,56.0,45.2,30.35,NNW,332,0.0,0.0,67,0.00,,SCT,0.00,0.00,VWS V14.01,2013-05-27 05:01:00,
2013-05-27 01:06:00,56.4,46.0,30.35,NNW,332,0.0,0.0,68,0.00,,SCT,0.00,0.00,VWS V14.01,2013-05-27 05:06:00,
2013-05-27 01:11:00,56.6,46.2,30.35,NNW,332,0.0,0.0,68,0.00,,SCT,0.00,0.00,VWS V14.01,2013-05-27 05:11:00,
2013-05-27 01:16:00,55.3,47.2,30.35,NNW,332,0.0,0.0,74,0.00,,SCT,0.00,0.00,VWS V14.01,2013-05-27 05:16:00,
2013-05-27 01:21:00,54.9,47.1,30.35,NNW,332,0.0,1.0,75,0.00,,SCT,0.00,0.00,VWS V14.01,2013-05-27 05:21:00,
2013-05-27 01:26:00,55.1,46.6,30.35,NNW,332,0.0,1.0,73,0.00,,SCT,0.00,0.00,VWS V14.01,2013-05-27 05:26:00,
2013-05-27 01:31:00,55.2,46.0,30.35,NNW,332,0.0,1.0,71,0.00,,SCT,0.00,0.00,VWS V14.01,2013-05-27 05:31:00,
2013-05-27 01:36:00,55.5,46.6,30.36,NNW,332,0.0,1.0,72,0.00,,SCT,0.00,0.00,VWS V14.01,2013-05-27 05:36:00,
2013-05-27 01:41:00,55.6,47.1,30.35,NNW,332,0.0,1.0,73,0.00,,SCT,0.00,0.00,VWS V14.01,2013-05-27 05:41:00,
2013-05-27 01:46:00,55.1,45.9,30.35,NNW,332,0.0,1.0,71,0.00,,SCT,0.00,0.00,VWS V14.01,2013-05-27 05:46:00,
2013-05-27 01:51:00,54.7,46.2,30.35,NNW,332,0.0,1.0,73,0.00,,SCT,0.00,0.00,VWS V14.01,2013-05-27 05:51:00,
2013-05-27 01:56:00,54.0,47.0,30.35,NNW,332,0.0,1.0,77,0.00,,SCT,0.00,0.00,VWS V14.01,2013-05-27 05:56:00,
2013-05-27 02:00:00,54.4,47.0,30.35,NNW,332,0.0,1.0,76,0.00,,SCT,0.00,0.00,VWS V14.01,2013-05-27 06:00:00,
2013-05-27 02:01:00,54.4,45.6,30.35,NNW,332,0.0,1.0,72,0.00,,SCT,0.00,0.00,VWS V14.01,2013-05-27 06:01:00,
2013-05-27 02:06:00,54.9,45.3,30.35,NNW,332,0.0,1.0,70,0.00,,SCT,0.00,0.00,VWS V14.01,2013-05-27 06:06:00,
2013-05-27 02:11:00,54.3,45.5,30.35,NNW,332,0.0,1.0,72,0.00,,SCT,0.00,0.00,VWS V14.01,2013-05-27 06:11:00,
2013-05-27 02:16:00,53.8,43.5,30.35,NNW,332,0.0,1.0,68,0.00,,SCT,0.00,0.00,VWS V14.01,2013-05-27 06:16:00,
2013-05-27 02:21:00,53.9,45.1,30.35,NNW,332,0.0,1.0,72,0.00,,SCT,0.00,0.00,VWS V14.01,2013-05-27 06:21:00,
2013-05-27 02:26:00,53.3,45.9,30.35,NNW,332,0.0,1.0,76,0.00,,SCT,0.00,0.00,VWS V14.01,2013-05-27 06:26:00,
2013-05-27 02:31:00,52.9,45.5,30.35,NNW,332,0.0,2.0,76,0.00,,SCT,0.00,0.00,VWS V14.01,2013-05-27 06:31:00,
2013-05-27 02:36:00,52.8,44.0,30.35,NNW,332,0.0,2.0,72,0.00,,SCT,0.00,0.00,VWS V14.01,2013-05-27 06:36:00,
2013-05-27 02:41:00,52.5,44.8,30.35,NNW,332,0.0,2.0,75,0.00,,SCT,0.00,0.00,VWS V14.01,2013-05-27 06:41:00,
2013-05-27 02:45:00,52.4,46.1,30.35,NNW,332,0.0,2.0,79,0.00,,SCT,0.00,0.00,VWS V14.01,2013-05-27 06:45:00,
2013-05-27 02:50:00,52.4,46.1,30.35,NNW,332,0.0,2.0,79,0.00,,SCT,0.00,0.00,VWS V14.01,2013-05-27 06:50:00,
2013-05-27 02:55:00,52.3,46.0,30.34,NNW,332,0.0,0.0,79,0.00,,SCT,0.00,0.00,VWS V14.01,2013-05-27 06:55:00,
2013-05-27 03:00:00,52.2,47.5,30.35,NNW,332,0.0,1.0,84,0.00,,SCT,0.00,0.00,VWS V14.01,2013-05-27 07:00:00,
2013-05-27 03:05:00,52.4,47.4,30.35,NNW,332,0.0,1.0,83,0.00,,SCT,0.00,0.00,VWS V14.01,2013-05-27 07:05:00,
2013-05-27 03:10:00,51.7,47.0,30.35,NNW,332,0.0,1.0,84,0.00,,SCT,0.00,0.00,VWS V14.01,2013-05-27 07:10:00,
2013-05-27 03:15:00,51.2,47.2,30.35,NNW,332,0.0,1.0,86,0.00,,SCT,0.00,0.00,VWS V14.01,2013-05-27 07:15:00,
2013-05-27 03:21:00,50.9,47.2,30.35,NNW,332,0.0,1.0,87,0.00,,SCT,0.00,0.00,VWS V14.01,2013-05-27 07:21:00,
2013-05-27 03:26:00,50.9,47.5,30.35,NNW,332,0.0,1.0,88,0.00,,SCT,0.00,0.00,VWS V14.01,2013-05-27 07:26:00,
2013-05-27 03:31:00,51.0,47.6,30.35,NNW,332,0.0,1.0,88,0.00,,SCT,0.00,0.00,VWS V14.01,2013-05-27 07:31:00,
2013-05-27 03:36:00,51.5,47.5,30.34,NNW,332,0.0,1.0,86,0.00,,SCT,0.00,0.00,VWS V14.01,2013-05-27 07:36:00,
2013-05-27 03:40:00,51.7,47.0,30.35,NNW,332,0.0,1.0,84,0.00,,SCT,0.00,0.00,VWS V14.01,2013-05-27 07:40:00,
2013-05-27 03:45:00,52.3,46.3,30.35,NNW,332,0.0,1.0,80,0.00,,SCT,0.00,0.00,VWS V14.01,2013-05-27 07:45:00,
2013-05-27 03:50:00,52.4,46.8,30.35,NNW,332,0.0,1.0,81,0.00,,SCT,0.00,0.00,VWS V14.01,2013-05-27 07:50:00,
2013-05-27 03:55:00,51.6,46.0,30.35,NNW,332,0.0,0.0,81,0.00,,SCT,0.00,0.00,VWS V14.01,2013-05-27 07:55:00,
2013-05-27 04:00:00,52.2,45.9,30.35,NNW,332,0.0,0.0,79,0.00,,SCT,0.00,0.00,VWS V14.01,2013-05-27 08:00:00,
2013-05-27 04:05:00,52.6,46.0,30.35,NNW,332,0.0,0.0,78,0.00,,SCT,0.00,0.00,VWS V14.01,2013-05-27 08:05:00,
2013-05-27 04:10:00,52.3,46.7,30.35,NNW,332,0.0,1.0,81,0.00,,SCT,0.00,0.00,VWS V14.01,2013-05-27 08:10:00,
2013-05-27 04:15:00,52.0,46.7,30.35,NNW,332,0.0,1.0,82,0.00,,SCT,0.00,0.00,VWS V14.01,2013-05-27 08:15:00,
2013-05-27 04:20:00,51.2,46.8,30.35,NNW,332,0.0,1.0,85,0.00,,SCT,0.00,0.00,VWS V14.01,2013-05-27 08:20:00,
2013-05-27 04:25:00,50.8,44.9,30.35,NNW,332,0.0,1.0,80,0.00,,SCT,0.00,0.00,VWS V14.01,2013-05-27 08:25:00,
2013-05-27 04:30:00,51.7,45.4,30.35,NNW,332,0.0,2.0,79,0.00,,SCT,0.00,0.00,VWS V14.01,2013-05-27 08:30:00,
2013-05-27 04:35:00,52.4,45.4,30.35,NNW,332,0.0,2.0,77,0.00,,SCT,0.00,0.00,VWS V14.01,2013-05-27 08:35:00,
2013-05-27 04:40:00,51.0,46.0,30.36,NNW,332,0.0,2.0,83,0.00,,SCT,0.00,0.00,VWS V14.01,2013-05-27 08:40:00,
2013-05-27 04:45:00,50.3,46.0,30.36,NNW,332,0.0,2.0,85,0.00,,SCT,0.00,0.00,VWS V14.01,2013-05-27 08:45:00,
2013-05-27 04:50:00,50.0,44.7,30.36,NNW,332,0.0,2.0,82,0.00,,SCT,0.00,0.00,VWS V14.01,2013-05-27 08:50:00,
2013-05-27 04:55:00,49.6,45.6,30.36,NNW,332,0.0,0.0,86,0.00,,SCT,0.00,0.00,VWS V14.01,2013-05-27 08:55:00,
2013-05-27 05:00:00,49.0,45.6,30.36,NNW,332,0.0,0.0,88,0.00,,SCT,0.00,0.00,VWS V14.01,2013-05-27 09:00:00,
2013-05-27 05:05:00,49.1,45.7,30.36,NNW,332,0.0,0.0,88,0.00,,SCT,0.00,0.00,VWS V14.01,2013-05-27 09:05:00,
2013-05-27 05:10:00,49.0,45.6,30.36,NNW,332,0.0,1.0,88,0.00,,SCT,0.00,0.00,VWS V14.01,2013-05-27 09:10:00,
2013-05-27 05:15:00,48.9,45.8,30.36,NNW,332,0.0,1.0,89,0.00,,SCT,0.00,0.00,VWS V14.01,2013-05-27 09:15:00,
2013-05-27 05:20:00,48.7,45.9,30.36,NNW,332,1.0,1.0,90,0.00,,SCT,0.00,0.00,VWS V14.01,2013-05-27 09:20:00,
2013-05-27 05:25:00,48.5,46.0,30.37,NNW,332,2.0,2.0,91,0.00,,SCT,0.00,0.00,VWS V14.01,2013-05-27 09:25:00,
2013-05-27 05:30:00,48.4,45.9,30.37,NNW,332,0.0,2.0,91,0.00,,SCT,0.00,0.00,VWS V14.01,2013-05-27 09:30:00,
2013-05-27 05:35:00,48.2,45.7,30.37,NNW,332,0.0,2.0,91,0.00,,SCT,0.00,0.00,VWS V14.01,2013-05-27 09:35:00,
2013-05-27 05:40:00,48.1,45.6,30.37,West,270,0.0,2.0,91,0.00,,SCT,0.00,0.00,VWS V14.01,2013-05-27 09:40:00,
2013-05-27 05:45:00,47.9,45.4,30.38,ESE,110,1.0,2.0,91,0.00,,SCT,0.00,0.00,VWS V14.01,2013-05-27 09:45:00,
2013-05-27 05:50:00,47.9,45.7,30.38,ESE,110,0.0,2.0,92,0.00,,SCT,0.00,0.00,VWS V14.01,2013-05-27 09:50:00,
2013-05-27 05:55:00,48.1,45.6,30.38,ESE,110,0.0,0.0,91,0.00,,SCT,0.00,0.00,VWS V14.01,2013-05-27 09:55:00,
2013-05-27 06:00:00,48.1,45.6,30.38,ESE,110,0.0,0.0,91,0.00,,SCT,0.00,7.00,VWS V14.01,2013-05-27 10:00:00,
2013-05-27 06:05:00,48.2,45.7,30.38,ESE,110,0.0,0.0,91,0.00,,SCT,0.00,11.00,VWS V14.01,2013-05-27 10:05:00,
2013-05-27 06:10:00,48.3,45.8,30.38,ESE,110,0.0,0.0,91,0.00,,SCT,0.00,14.00,VWS V14.01,2013-05-27 10:10:00,
2013-05-27 06:15:00,48.3,45.8,30.38,ESE,110,0.0,0.0,91,0.00,,SCT,0.00,19.00,VWS V14.01,2013-05-27 10:15:00,
2013-05-27 06:20:00,48.4,45.6,30.38,ESE,110,0.0,0.0,90,0.00,,SCT,0.00,21.00,VWS V14.01,2013-05-27 10:20:00,
2013-05-27 06:25:00,48.5,45.7,30.38,ESE,110,0.0,0.0,90,0.00,,SCT,0.00,26.00,VWS V14.01,2013-05-27 10:25:00,
2013-05-27 06:30:00,48.6,45.5,30.38,ESE,110,0.0,1.0,89,0.00,,SCT,0.00,25.00,VWS V14.01,2013-05-27 10:30:00,
2013-05-27 06:35:00,48.6,45.5,30.38,ESE,110,0.0,1.0,89,0.00,,SCT,0.00,28.00,VWS V14.01,2013-05-27 10:35:00,
2013-05-27 06:40:00,48.7,45.3,30.38,ESE,110,0.0,1.0,88,0.00,,SCT,0.00,37.00,VWS V14.01,2013-05-27 10:40:00,
2013-05-27 06:45:00,48.9,45.5,30.38,ESE,110,0.0,1.0,88,0.00,,SCT,0.00,46.00,VWS V14.01,2013-05-27 10:45:00,
2013-05-27 06:50:00,49.0,45.3,30.39,ESE,110,0.0,1.0,87,0.00,,SCT,0.00,53.00,VWS V14.01,2013-05-27 10:50:00,
2013-05-27 06:55:00,49.2,45.5,30.39,ESE,110,0.0,0.0,87,0.00,,SCT,0.00,54.00,VWS V14.01,2013-05-27 10:55:00,
2013-05-27 07:00:00,49.2,45.2,30.38,ESE,110,0.0,2.0,86,0.00,,SCT,0.00,53.00,VWS V14.01,2013-05-27 11:00:00,
2013-05-27 07:05:00,49.4,45.4,30.39,ESE,111,0.0,2.0,86,0.00,,SCT,0.00,49.00,VWS V14.01,2013-05-27 11:05:00,
2013-05-27 07:10:00,49.7,45.4,30.39,ESE,111,0.0,2.0,85,0.00,,SCT,0.00,51.00,VWS V14.01,2013-05-27 11:10:00,
2013-05-27 07:15:00,49.8,45.5,30.39,ESE,111,0.0,2.0,85,0.00,,SCT,0.00,54.00,VWS V14.01,2013-05-27 11:15:00,
2013-05-27 07:20:00,50.1,45.5,30.39,ESE,111,0.0,2.0,84,0.00,,SCT,0.00,54.00,VWS V14.01,2013-05-27 11:20:00,
2013-05-27 07:25:00,50.0,45.4,30.39,ESE,111,0.0,2.0,84,0.00,,SCT,0.00,54.00,VWS V14.01,2013-05-27 11:25:00,
2013-05-27 07:30:00,50.2,45.9,30.39,ESE,111,0.0,2.0,85,0.00,,SCT,0.00,65.00,VWS V14.01,2013-05-27 11:30:00,
2013-05-27 07:35:00,50.2,45.9,30.40,ESE,111,0.0,2.0,85,0.00,,SCT,0.00,67.00,VWS V14.01,2013-05-27 11:35:00,
2013-05-27 07:40:00,50.2,46.8,30.40,ESE,111,1.0,2.0,88,0.00,,SCT,0.00,70.00,VWS V14.01,2013-05-27 11:40:00,
2013-05-27 07:45:00,50.6,46.3,30.39,ESE,111,0.0,2.0,85,0.00,,SCT,0.00,67.00,VWS V14.01,2013-05-27 11:45:00,
2013-05-27 07:50:00,50.8,46.8,30.40,ESE,111,2.0,2.0,86,0.00,,SCT,0.00,65.00,VWS V14.01,2013-05-27 11:50:00,
2013-05-27 07:55:00,51.8,47.4,30.40,ESE,111,0.0,2.0,85,0.00,,SCT,0.00,67.00,VWS V14.01,2013-05-27 11:55:00,
2013-05-27 08:00:00,52.2,47.2,30.40,ESE,111,1.0,2.0,83,0.00,,SCT,0.00,69.00,VWS V14.01,2013-05-27 12:00:00,
2013-05-27 08:05:00,52.8,47.5,30.40,ESE,111,2.0,2.0,82,0.00,,SCT,0.00,81.00,VWS V14.01,2013-05-27 12:05:00,
2013-05-27 08:10:00,53.6,47.9,30.40,ESE,111,0.0,2.0,81,0.00,,SCT,0.00,77.00,VWS V14.01,2013-05-27 12:10:00,
2013-05-27 08:15:00,54.0,48.0,30.40,ESE,111,0.0,2.0,80,0.00,,SCT,0.00,74.00,VWS V14.01,2013-05-27 12:15:00,
2013-05-27 08:20:00,54.4,48.4,30.40,ESE,111,0.0,2.0,80,0.00,,SCT,0.00,65.00,VWS V14.01,2013-05-27 12:20:00,
2013-05-27 08:25:00,54.8,48.8,30.40,ESE,111,0.0,2.0,80,0.00,,SCT,0.00,62.00,VWS V14.01,2013-05-27 12:25:00,
2013-05-27 08:30:00,55.9,49.2,30.40,ESE,111,0.0,2.0,78,0.00,,SCT,0.00,63.00,VWS V14.01,2013-05-27 12:30:00,
2013-05-27 08:35:00,57.1,48.9,30.40,ESE,111,0.0,2.0,74,0.00,,SCT,0.00,76.00,VWS V14.01,2013-05-27 12:35:00,
2013-05-27 08:40:00,57.7,48.8,30.40,ESE,111,0.0,2.0,72,0.00,,SCT,0.00,90.00,VWS V14.01,2013-05-27 12:40:00,
2013-05-27 08:45:00,59.4,49.6,30.40,ESE,111,0.0,2.0,70,0.00,,SCT,0.00,142.00,VWS V14.01,2013-05-27 12:45:00,
2013-05-27 08:50:00,59.7,47.9,30.40,ESE,111,0.0,2.0,65,0.00,,SCT,0.00,232.00,VWS V14.01,2013-05-27 12:50:00,
2013-05-27 08:55:00,60.6,47.5,30.40,ESE,111,0.0,4.0,62,0.00,,SCT,0.00,352.00,VWS V14.01,2013-05-27 12:55:00,
2013-05-27 09:00:00,60.7,46.3,30.40,ESE,111,1.0,4.0,59,0.00,,SCT,0.00,403.00,VWS V14.01,2013-05-27 13:00:00,
2013-05-27 09:05:00,60.8,45.0,30.40,ESE,116,0.0,4.0,56,0.00,,SCT,0.00,394.00,VWS V14.01,2013-05-27 13:05:00,
2013-05-27 09:10:00,61.7,46.8,30.40,ESE,116,0.0,4.0,58,0.00,,SCT,0.00,367.00,VWS V14.01,2013-05-27 13:10:00,
2013-05-27 09:15:00,62.1,47.6,30.40,ESE,116,0.0,4.0,59,0.00,,SCT,0.00,327.00,VWS V14.01,2013-05-27 13:15:00,
2013-05-27 09:20:00,62.3,46.9,30.40,ESE,116,0.0,4.0,57,0.00,,SCT,0.00,343.00,VWS V14.01,2013-05-27 13:20:00,
2013-05-27 09:25:00,62.1,45.8,30.39,ESE,123,0.0,4.0,55,0.00,,SCT,0.00,265.00,VWS V14.01,2013-05-27 13:25:00,
2013-05-27 09:30:00,62.3,45.5,30.39,SE,132,0.0,4.0,54,0.00,,SCT,0.00,332.00,VWS V14.01,2013-05-27 13:30:00,
2013-05-27 09:35:00,62.3,45.5,30.39,SE,132,0.0,4.0,54,0.00,,SCT,0.00,332.00,VWS V14.01,2013-05-27 13:35:00,
2013-05-27 09:40:00,63.4,45.0,30.39,SE,128,4.0,4.0,51,0.00,,SCT,0.00,376.00,VWS V14.01,2013-05-27 13:40:00,
2013-05-27 09:45:00,63.8,45.3,30.39,SE,127,0.0,4.0,51,0.00,,SCT,0.00,355.00,VWS V14.01,2013-05-27 13:45:00,
2013-05-27 09:50:00,63.9,46.5,30.39,SE,127,1.0,4.0,53,0.00,,SCT,0.00,316.00,VWS V14.01,2013-05-27 13:50:00,
2013-05-27 09:55:00,63.6,45.2,30.39,SE,127,0.0,1.0,51,0.00,,SCT,0.00,297.00,VWS V14.01,2013-05-27 13:55:00,
2013-05-27 10:00:00,63.3,45.9,30.39,SE,127,0.0,2.0,53,0.00,,SCT,0.00,327.00,VWS V14.01,2013-05-27 14:00:00,
2013-05-27 10:05:00,63.8,47.3,30.39,SE,128,2.0,2.0,55,0.00,,SCT,0.00,494.00,VWS V14.01,2013-05-27 14:05:00,
2013-05-27 10:10:00,63.9,46.5,30.39,SSW,207,0.0,4.0,53,0.00,,SCT,0.00,390.00,VWS V14.01,2013-05-27 14:10:00,
2013-05-27 10:15:00,64.1,47.1,30.39,West,267,2.0,4.0,54,0.00,,SCT,0.00,357.00,VWS V14.01,2013-05-27 14:15:00,
2013-05-27 10:20:00,63.8,46.8,30.39,WSW,254,0.0,4.0,54,0.00,,SCT,0.00,390.00,VWS V14.01,2013-05-27 14:20:00,
2013-05-27 10:25:00,64.4,48.4,30.39,SW,222,3.0,4.0,56,0.00,,SCT,0.00,374.00,VWS V14.01,2013-05-27 14:25:00,
2013-05-27 10:30:00,64.4,46.9,30.39,SSW,210,1.0,4.0,53,0.00,,SCT,0.00,531.00,VWS V14.01,2013-05-27 14:30:00,
2013-05-27 10:35:00,65.2,47.2,30.39,WSW,243,1.0,4.0,52,0.00,,SCT,0.00,573.00,VWS V14.01,2013-05-27 14:35:00,
2013-05-27 10:40:00,65.0,46.5,30.39,WSW,246,0.0,4.0,51,0.00,,SCT,0.00,376.00,VWS V14.01,2013-05-27 14:40:00,
2013-05-27 10:45:00,65.2,46.6,30.39,SW,236,0.0,6.0,51,0.00,,SCT,0.00,336.00,VWS V14.01,2013-05-27 14:45:00,
2013-05-27 10:50:00,65.2,47.2,30.39,SW,236,0.0,6.0,52,0.00,,SCT,0.00,545.00,VWS V14.01,2013-05-27 14:50:00,
2013-05-27 10:55:00,65.8,48.7,30.39,SW,218,1.0,1.0,54,0.00,,SCT,0.00,381.00,VWS V14.01,2013-05-27 14:55:00,
2013-05-27 11:00:00,66.5,48.3,30.39,South,169,4.0,5.0,52,0.00,,SCT,0.00,385.00,VWS V14.01,2013-05-27 15:00:00,
2013-05-27 11:05:00,65.9,45.7,30.39,SSW,205,0.0,6.0,48,0.00,,SCT,0.00,438.00,VWS V14.01,2013-05-27 15:05:00,
2013-05-27 11:10:00,66.1,46.9,30.39,SSW,193,2.0,6.0,50,0.00,,SCT,0.00,313.00,VWS V14.01,2013-05-27 15:10:00,
2013-05-27 11:15:00,66.2,46.5,30.39,SW,233,2.0,6.0,49,0.00,,SCT,0.00,251.00,VWS V14.01,2013-05-27 15:15:00,
2013-05-27 11:20:00,65.7,46.6,30.39,WSW,253,2.0,6.0,50,0.00,,SCT,0.00,227.00,VWS V14.01,2013-05-27 15:20:00,
2013-05-27 11:25:00,65.7,47.6,30.39,WSW,254,0.0,6.0,52,0.00,,SCT,0.00,243.00,VWS V14.01,2013-05-27 15:25:00,
2013-05-27 11:30:00,65.7,47.6,30.39,WSW,253,0.0,6.0,52,0.00,,SCT,0.00,297.00,VWS V14.01,2013-05-27 15:30:00,
2013-05-27 11:35:00,65.9,47.8,30.39,WSW,253,0.0,6.0,52,0.00,,SCT,0.00,346.00,VWS V14.01,2013-05-27 15:35:00,
2013-05-27 11:40:00,66.2,48.6,30.38,WSW,253,1.0,6.0,53,0.00,,SCT,0.00,348.00,VWS V14.01,2013-05-27 15:40:00,
2013-05-27 11:45:00,66.8,48.1,30.39,WSW,253,0.0,6.0,51,0.00,,SCT,0.00,464.00,VWS V14.01,2013-05-27 15:45:00,
2013-05-27 11:50:00,66.5,49.8,30.38,WSW,253,1.0,6.0,55,0.00,,SCT,0.00,278.00,VWS V14.01,2013-05-27 15:50:00,
2013-05-27 11:55:00,66.1,47.5,30.38,WSW,254,0.0,1.0,51,0.00,,SCT,0.00,251.00,VWS V14.01,2013-05-27 15:55:00,
2013-05-27 12:00:00,66.1,46.4,30.38,WSW,254,2.0,2.0,49,0.00,,SCT,0.00,367.00,VWS V14.01,2013-05-27 16:00:00,
2013-05-27 12:05:00,66.3,46.0,30.38,WSW,253,0.0,3.0,48,0.00,,SCT,0.00,606.00,VWS V14.01,2013-05-27 16:05:00,
2013-05-27 12:09:00,67.0,47.8,30.38,WSW,253,0.0,3.0,50,0.00,,SCT,0.00,575.00,VWS V14.01,2013-05-27 16:09:00,
2013-05-27 12:14:00,67.5,47.7,30.38,WSW,255,0.0,3.0,49,0.00,,SCT,0.00,404.00,VWS V14.01,2013-05-27 16:14:00,
2013-05-27 12:19:00,67.1,45.7,30.38,WSW,256,2.0,3.0,46,0.00,,SCT,0.00,536.00,VWS V14.01,2013-05-27 16:19:00,
2013-05-27 12:24:00,67.1,43.9,30.38,WSW,256,0.0,3.0,43,0.00,,SCT,0.00,360.00,VWS V14.01,2013-05-27 16:24:00,
2013-05-27 12:29:00,67.1,43.9,30.38,WSW,256,0.0,3.0,43,0.00,,SCT,0.00,309.00,VWS V14.01,2013-05-27 16:29:00,
2013-05-27 12:34:00,67.5,44.2,30.37,WSW,256,1.0,3.0,43,0.00,,SCT,0.00,258.00,VWS V14.01,2013-05-27 16:34:00,
2013-05-27 12:39:00,67.1,45.1,30.37,WSW,256,1.0,3.0,45,0.00,,SCT,0.00,264.00,VWS V14.01,2013-05-27 16:39:00,
2013-05-27 12:44:00,67.0,45.6,30.37,WSW,256,0.0,3.0,46,0.00,,SCT,0.00,323.00,VWS V14.01,2013-05-27 16:44:00,
2013-05-27 12:49:00,67.1,46.2,30.37,WSW,256,2.0,3.0,47,0.00,,SCT,0.00,304.00,VWS V14.01,2013-05-27 16:49:00,
2013-05-27 12:54:00,67.2,47.4,30.37,WSW,256,3.0,4.0,49,0.00,,SCT,0.00,241.00,VWS V14.01,2013-05-27 16:54:00,
2013-05-27 12:59:00,67.1,47.3,30.36,WSW,256,0.0,4.0,49,0.00,,SCT,0.00,227.00,VWS V14.01,2013-05-27 16:59:00,
2013-05-27 13:00:00,67.1,46.2,30.37,WSW,256,2.0,3.0,47,0.00,,SCT,0.00,258.00,VWS V14.01,2013-05-27 17:00:00,
2013-05-27 13:04:00,67.1,47.9,30.36,WSW,256,1.0,4.0,50,0.00,,SCT,0.00,236.00,VWS V14.01,2013-05-27 17:04:00,
2013-05-27 13:09:00,67.2,46.9,30.36,West,263,1.0,4.0,48,0.00,,SCT,0.00,236.00,VWS V14.01,2013-05-27 17:09:00,
2013-05-27 13:14:00,67.8,48.0,30.36,West,264,0.0,4.0,49,0.00,,SCT,0.00,257.00,VWS V14.01,2013-05-27 17:14:00,
2013-05-27 13:19:00,67.4,47.6,30.36,West,264,0.0,4.0,49,0.00,,SCT,0.00,232.00,VWS V14.01,2013-05-27 17:19:00,
2013-05-27 13:24:00,67.1,47.3,30.36,West,264,2.0,4.0,49,0.00,,SCT,0.00,227.00,VWS V14.01,2013-05-27 17:24:00,
2013-05-27 13:29:00,66.9,46.6,30.36,West,259,2.0,4.0,48,0.00,,SCT,0.00,274.00,VWS V14.01,2013-05-27 17:29:00,
2013-05-27 13:34:00,67.2,49.0,30.36,West,259,1.0,4.0,52,0.00,,SCT,0.00,346.00,VWS V14.01,2013-05-27 17:34:00,
2013-05-27 13:39:00,67.4,48.1,30.36,West,260,1.0,4.0,50,0.00,,SCT,0.00,439.00,VWS V14.01,2013-05-27 17:39:00,
2013-05-27 13:44:00,67.5,46.6,30.36,NW,318,1.0,5.0,47,0.00,,SCT,0.00,425.00,VWS V14.01,2013-05-27 17:44:00,
2013-05-27 13:49:00,67.5,46.6,30.36,WSW,250,3.0,5.0,47,0.00,,SCT,0.00,362.00,VWS V14.01,2013-05-27 17:49:00,
2013-05-27 13:54:00,67.5,46.0,30.36,WSW,242,1.0,6.0,46,0.00,,SCT,0.00,320.00,VWS V14.01,2013-05-27 17:54:00,
2013-05-27 13:59:00,67.6,46.7,30.36,WSW,246,0.0,6.0,47,0.00,,SCT,0.00,306.00,VWS V14.01,2013-05-27 17:59:00,
2013-05-27 14:00:00,67.5,46.6,30.36,WSW,241,5.0,7.0,47,0.00,,SCT,0.00,338.00,VWS V14.01,2013-05-27 18:00:00,
2013-05-27 14:04:00,67.6,44.3,30.35,WNW,288,5.0,7.0,43,0.00,,SCT,0.00,429.00,VWS V14.01,2013-05-27 18:04:00,
2013-05-27 14:09:00,68.0,44.7,30.36,WNW,286,5.0,7.0,43,0.00,,SCT,0.00,715.00,VWS V14.01,2013-05-27 18:09:00,
2013-05-27 14:14:00,69.1,46.9,30.36,NNW,344,2.0,7.0,45,0.00,,SCT,0.00,656.00,VWS V14.01,2013-05-27 18:14:00,
2013-05-27 14:19:00,69.1,45.1,30.35,WNW,302,7.0,8.0,42,0.00,,SCT,0.00,411.00,VWS V14.01,2013-05-27 18:19:00,
2013-05-27 14:24:00,68.4,45.7,30.35,NW,315,3.0,8.0,44,0.00,,SCT,0.00,401.00,VWS V14.01,2013-05-27 18:24:00,
2013-05-27 14:29:00,68.6,45.2,30.34,NW,311,0.0,8.0,43,0.00,,SCT,0.00,362.00,VWS V14.01,2013-05-27 18:29:00,
2013-05-27 14:34:00,68.3,45.6,30.34,NW,311,0.0,8.0,44,0.00,,SCT,0.00,374.00,VWS V14.01,2013-05-27 18:34:00,
2013-05-27 14:39:00,68.8,46.0,30.34,NW,311,2.0,8.0,44,0.00,,SCT,0.00,452.00,VWS V14.01,2013-05-27 18:39:00,
2013-05-27 14:44:00,69.2,45.8,30.34,NNW,333,0.0,8.0,43,0.00,,SCT,0.00,359.00,VWS V14.01,2013-05-27 18:44:00,
2013-05-27 14:49:00,69.8,46.3,30.34,NNW,333,0.0,8.0,43,0.00,,SCT,0.00,341.00,VWS V14.01,2013-05-27 18:49:00,
2013-05-27 14:54:00,68.8,48.3,30.34,NW,314,0.0,1.0,48,0.00,,SCT,0.00,345.00,VWS V14.01,2013-05-27 18:54:00,
2013-05-27 14:59:00,68.7,47.7,30.34,NW,314,0.0,1.0,47,0.00,,SCT,0.00,313.00,VWS V14.01,2013-05-27 18:59:00,
2013-05-27 15:00:00,68.9,45.5,30.34,NW,314,1.0,8.0,43,0.00,,SCT,0.00,369.00,VWS V14.01,2013-05-27 19:00:00,
2013-05-27 15:04:00,69.4,46.0,30.34,NW,314,0.0,1.0,43,0.00,,SCT,0.00,413.00,VWS V14.01,2013-05-27 19:04:00,
2013-05-27 15:09:00,70.2,46.7,30.34,NNW,333,2.0,2.0,43,0.00,,SCT,0.00,355.00,VWS V14.01,2013-05-27 19:09:00,
2013-05-27 15:14:00,70.2,46.7,30.34,NNW,337,0.0,3.0,43,0.00,,SCT,0.00,267.00,VWS V14.01,2013-05-27 19:14:00,
2013-05-27 15:19:00,70.1,46.6,30.33,NE,55,2.0,4.0,43,0.00,,SCT,0.00,294.00,VWS V14.01,2013-05-27 19:19:00,
2013-05-27 15:24:00,69.5,46.7,30.33,NE,55,0.0,4.0,44,0.00,,SCT,0.00,276.00,VWS V14.01,2013-05-27 19:24:00,
2013-05-27 15:29:00,69.3,48.2,30.33,NE,55,0.0,4.0,47,0.00,,SCT,0.00,311.00,VWS V14.01,2013-05-27 19:29:00,
2013-05-27 15:34:00,69.3,48.2,30.33,NE,55,0.0,4.0,47,0.00,,SCT,0.00,432.00,VWS V14.01,2013-05-27 19:34:00,
2013-05-27 15:39:00,69.6,49.1,30.32,NE,55,1.0,4.0,48,0.00,,SCT,0.00,338.00,VWS V14.01,2013-05-27 19:39:00,
2013-05-27 15:44:00,69.0,48.0,30.32,SW,223,3.0,5.0,47,0.00,,SCT,0.00,234.00,VWS V14.01,2013-05-27 19:44:00,
2013-05-27 15:49:00,68.8,47.2,30.32,South,171,2.0,5.0,46,0.00,,SCT,0.00,232.00,VWS V14.01,2013-05-27 19:49:00,
2013-05-27 15:54:00,68.9,47.9,30.32,South,169,0.0,1.0,47,0.00,,SCT,0.00,262.00,VWS V14.01,2013-05-27 19:54:00,
2013-05-27 15:59:00,69.1,48.0,30.32,South,169,0.0,1.0,47,0.00,,SCT,0.00,281.00,VWS V14.01,2013-05-27 19:59:00,
2013-05-27 16:00:00,68.8,47.8,30.32,South,169,0.0,5.0,47,0.00,,SCT,0.00,255.00,VWS V14.01,2013-05-27 20:00:00,
2013-05-27 16:04:00,68.8,50.0,30.31,West,271,3.0,5.0,51,0.00,,SCT,0.00,260.00,VWS V14.01,2013-05-27 20:04:00,
2013-05-27 16:09:00,68.7,49.9,30.32,West,279,0.0,5.0,51,0.00,,SCT,0.00,185.00,VWS V14.01,2013-05-27 20:09:00,
2013-05-27 16:14:00,68.5,49.7,30.32,West,275,1.0,5.0,51,0.00,,SCT,0.00,146.00,VWS V14.01,2013-05-27 20:14:00,
2013-05-27 16:19:00,68.9,48.4,30.32,West,271,1.0,5.0,48,0.00,,SCT,0.00,151.00,VWS V14.01,2013-05-27 20:19:00,
2013-05-27 16:24:00,69.3,48.2,30.32,West,270,0.0,5.0,47,0.00,,SCT,0.00,123.00,VWS V14.01,2013-05-27 20:24:00,
2013-05-27 16:29:00,69.3,48.2,30.32,West,263,0.0,5.0,47,0.00,,SCT,0.00,102.00,VWS V14.01,2013-05-27 20:29:00,
2013-05-27 16:34:00,69.3,48.8,30.32,West,263,1.0,5.0,48,0.00,,SCT,0.00,114.00,VWS V14.01,2013-05-27 20:34:00,
2013-05-27 16:39:00,68.8,50.5,30.32,WSW,256,2.0,5.0,52,0.00,,SCT,0.00,102.00,VWS V14.01,2013-05-27 20:39:00,
2013-05-27 16:44:00,68.2,50.9,30.31,WSW,245,0.0,5.0,54,0.00,,SCT,0.00,104.00,VWS V14.01,2013-05-27 20:44:00,
2013-05-27 16:49:00,67.7,52.4,30.32,WSW,245,1.0,5.0,58,0.00,,SCT,0.00,105.00,VWS V14.01,2013-05-27 20:49:00,
2013-05-27 16:54:00,67.4,52.6,30.32,SW,231,3.0,3.0,59,0.00,,SCT,0.00,100.00,VWS V14.01,2013-05-27 20:54:00,
2013-05-27 16:59:00,67.2,51.5,30.32,SSW,207,2.0,3.0,57,0.00,,SCT,0.00,139.00,VWS V14.01,2013-05-27 20:59:00,
2013-05-27 17:00:00,67.4,52.6,30.32,WSW,245,0.0,5.0,59,0.00,,SCT,0.00,100.00,VWS V14.01,2013-05-27 21:00:00,
2013-05-27 17:04:00,67.2,51.5,30.31,SSW,207,0.0,3.0,57,0.00,,SCT,0.00,141.00,VWS V14.01,2013-05-27 21:04:00,
2013-05-27 17:09:00,67.3,51.6,30.31,SSW,207,0.0,3.0,57,0.00,,SCT,0.00,172.00,VWS V14.01,2013-05-27 21:09:00,
2013-05-27 17:14:00,67.3,52.5,30.31,SSW,205,3.0,4.0,59,0.00,,SCT,0.00,151.00,VWS V14.01,2013-05-27 21:14:00,
2013-05-27 17:19:00,67.2,51.5,30.31,SSW,203,0.0,4.0,57,0.00,,SCT,0.00,162.00,VWS V14.01,2013-05-27 21:19:00,
2013-05-27 17:24:00,67.2,51.9,30.31,SSW,203,0.0,4.0,58,0.00,,SCT,0.00,195.00,VWS V14.01,2013-05-27 21:24:00,
2013-05-27 17:29:00,67.3,52.0,30.31,SSW,203,0.0,4.0,58,0.00,,SCT,0.00,186.00,VWS V14.01,2013-05-27 21:29:00,
2013-05-27 17:34:00,67.5,51.8,30.31,SSW,203,0.0,4.0,57,0.00,,SCT,0.00,172.00,VWS V14.01,2013-05-27 21:34:00,
2013-05-27 17:39:00,67.6,51.8,30.31,SSW,203,0.0,4.0,57,0.00,,SCT,0.00,149.00,VWS V14.01,2013-05-27 21:39:00,
2013-05-27 17:44:00,67.7,51.9,30.31,SSW,203,0.0,4.0,57,0.00,,SCT,0.00,163.00,VWS V14.01,2013-05-27 21:44:00,
2013-05-27 17:49:00,67.5,52.2,30.30,SSW,211,0.0,4.0,58,0.00,,SCT,0.00,192.00,VWS V14.01,2013-05-27 21:49:00,
2013-05-27 17:54:00,67.4,52.6,30.30,SSW,213,2.0,2.0,59,0.00,,SCT,0.00,200.00,VWS V14.01,2013-05-27 21:54:00,
2013-05-27 17:59:00,67.4,51.7,30.30,SSW,213,0.0,2.0,57,0.00,,SCT,0.00,188.00,VWS V14.01,2013-05-27 21:59:00,
2013-05-27 18:00:00,67.4,52.1,30.30,SSW,213,1.0,4.0,58,0.00,,SCT,0.00,174.00,VWS V14.01,2013-05-27 22:00:00,
2013-05-27 18:04:00,67.5,51.8,30.30,SSW,213,0.0,2.0,57,0.00,,SCT,0.00,200.00,VWS V14.01,2013-05-27 22:04:00,
2013-05-27 18:09:00,67.7,52.4,30.30,SSW,213,0.0,2.0,58,0.00,,SCT,0.00,188.00,VWS V14.01,2013-05-27 22:09:00,
2013-05-27 18:14:00,67.7,52.4,30.30,SSW,213,0.0,2.0,58,0.00,,SCT,0.00,156.00,VWS V14.01,2013-05-27 22:14:00,
2013-05-27 18:19:00,67.6,51.8,30.29,SSW,213,1.0,2.0,57,0.00,,SCT,0.00,163.00,VWS V14.01,2013-05-27 22:19:00,
2013-05-27 18:24:00,67.6,52.3,30.29,West,263,2.0,4.0,58,0.00,,SCT,0.00,135.00,VWS V14.01,2013-05-27 22:24:00,
2013-05-27 18:29:00,67.5,52.2,30.29,WNW,284,1.0,4.0,58,0.00,,SCT,0.00,327.00,VWS V14.01,2013-05-27 22:29:00,
2013-05-27 18:34:00,67.6,52.3,30.29,WNW,284,0.0,4.0,58,0.00,,SCT,0.00,135.00,VWS V14.01,2013-05-27 22:34:00,
2013-05-27 18:39:00,67.8,52.5,30.29,WNW,284,0.0,4.0,58,0.00,,SCT,0.00,135.00,VWS V14.01,2013-05-27 22:39:00,
2013-05-27 18:44:00,67.7,52.4,30.28,WNW,284,0.0,4.0,58,0.00,,SCT,0.00,128.00,VWS V14.01,2013-05-27 22:44:00,
2013-05-27 18:49:00,67.7,53.8,30.28,West,281,0.0,4.0,61,0.00,,SCT,0.00,120.00,VWS V14.01,2013-05-27 22:49:00,
2013-05-27 18:54:00,67.6,54.1,30.28,West,281,3.0,3.0,62,0.00,,SCT,0.00,107.00,VWS V14.01,2013-05-27 22:54:00,
2013-05-27 18:59:00,67.4,53.9,30.28,West,281,0.0,3.0,62,0.00,,SCT,0.00,95.00,VWS V14.01,2013-05-27 22:59:00,
2013-05-27 19:00:00,67.6,54.1,30.28,West,281,1.0,4.0,62,0.00,,SCT,0.00,109.00,VWS V14.01,2013-05-27 23:00:00,
2013-05-27 19:04:00,67.5,53.6,30.28,West,281,0.0,3.0,61,0.00,,SCT,0.00,95.00,VWS V14.01,2013-05-27 23:04:00,
2013-05-27 19:09:00,67.4,54.8,30.28,West,281,0.0,3.0,64,0.00,,SCT,0.00,91.00,VWS V14.01,2013-05-27 23:09:00,
2013-05-27 19:14:00,67.3,53.8,30.28,West,281,0.0,3.0,62,0.00,,SCT,0.00,137.00,VWS V14.01,2013-05-27 23:14:00,
2013-05-27 19:19:00,67.3,54.3,30.28,West,281,0.0,3.0,63,0.00,,SCT,0.00,127.00,VWS V14.01,2013-05-27 23:19:00,
2013-05-27 19:24:00,67.4,53.0,30.28,West,281,1.0,3.0,60,0.00,,SCT,0.00,105.00,VWS V14.01,2013-05-27 23:24:00,
2013-05-27 19:29:00,67.5,53.1,30.28,West,281,0.0,3.0,60,0.00,,SCT,0.00,98.00,VWS V14.01,2013-05-27 23:29:00,
2013-05-27 19:34:00,67.6,53.2,30.28,West,281,0.0,3.0,60,0.00,,SCT,0.00,77.00,VWS V14.01,2013-05-27 23:34:00,
2013-05-27 19:39:00,67.7,53.3,30.28,West,281,0.0,3.0,60,0.00,,SCT,0.00,53.00,VWS V14.01,2013-05-27 23:39:00,
2013-05-27 19:44:00,67.6,53.2,30.28,West,281,0.0,3.0,60,0.00,,SCT,0.00,42.00,VWS V14.01,2013-05-27 23:44:00,
2013-05-27 19:49:00,67.3,53.0,30.28,West,279,0.0,3.0,60,0.00,,SCT,0.00,35.00,VWS V14.01,2013-05-27 23:49:00,
2013-05-27 19:54:00,67.1,53.2,30.28,West,279,0.0,1.0,61,0.00,,SCT,0.00,30.00,VWS V14.01,2013-05-27 23:54:00,
2013-05-27 19:59:00,66.9,53.5,30.28,West,279,0.0,1.0,62,0.00,,SCT,0.00,21.00,VWS V14.01,2013-05-27 23:59:00,
2013-05-27 20:00:00,67.1,53.2,30.28,West,279,0.0,3.0,61,0.00,,SCT,0.00,30.00,VWS V14.01,2013-05-28 00:00:00,
2013-05-27 20:04:00,66.7,53.3,30.28,West,279,0.0,2.0,62,0.00,,SCT,0.00,14.00,VWS V14.01,2013-05-28 00:04:00,
2013-05-27 20:09:00,66.5,53.5,30.28,West,279,0.0,2.0,63,0.00,,SCT,0.00,9.00,VWS V14.01,2013-05-28 00:09:00,
2013-05-27 20:14:00,66.2,55.7,30.28,West,279,0.0,2.0,69,0.00,,SCT,0.00,5.00,VWS V14.01,2013-05-28 00:14:00,
2013-05-27 20:19:00,65.8,55.4,30.28,West,279,0.0,2.0,69,0.00,,SCT,0.00,0.00,VWS V14.01,2013-05-28 00:19:00,
2013-05-27 20:24:00,65.4,55.8,30.28,West,279,0.0,2.0,71,0.00,,SCT,0.00,0.00,VWS V14.01,2013-05-28 00:24:00,
2013-05-27 20:29:00,65.2,55.2,30.28,West,279,0.0,2.0,70,0.00,,SCT,0.00,0.00,VWS V14.01,2013-05-28 00:29:00,
2013-05-27 20:34:00,65.1,55.1,30.28,West,279,1.0,2.0,70,0.00,,SCT,0.00,0.00,VWS V14.01,2013-05-28 00:34:00,
2013-05-27 20:39:00,64.8,55.2,30.28,West,279,0.0,2.0,71,0.00,,SCT,0.00,0.00,VWS V14.01,2013-05-28 00:39:00,
2013-05-27 20:44:00,65.0,55.4,30.28,West,279,0.0,2.0,71,0.00,,SCT,0.00,0.00,VWS V14.01,2013-05-28 00:44:00,
2013-05-27 20:49:00,65.0,55.8,30.28,West,279,0.0,2.0,72,0.00,,SCT,0.00,0.00,VWS V14.01,2013-05-28 00:49:00,
2013-05-27 20:54:00,64.9,56.0,30.28,West,279,0.0,0.0,73,0.00,,SCT,0.00,0.00,VWS V14.01,2013-05-28 00:54:00,
2013-05-27 20:59:00,64.8,56.3,30.28,West,279,0.0,1.0,74,0.00,,SCT,0.00,0.00,VWS V14.01,2013-05-28 00:59:00,
2013-05-27 21:00:00,65.0,56.2,30.28,West,279,0.0,2.0,73,0.00,,SCT,0.00,0.00,VWS V14.01,2013-05-28 01:00:00,
2013-05-27 21:04:00,64.6,56.1,30.29,West,279,0.0,1.0,74,0.00,,SCT,0.00,0.00,VWS V14.01,2013-05-28 01:04:00,
2013-05-27 21:09:00,64.7,55.9,30.29,West,279,0.0,1.0,73,0.00,,SCT,0.00,0.00,VWS V14.01,2013-05-28 01:09:00,
2013-05-27 21:14:00,64.4,55.9,30.28,West,279,0.0,1.0,74,0.00,,SCT,0.00,0.00,VWS V14.01,2013-05-28 01:14:00,
2013-05-27 21:19:00,64.4,56.3,30.29,West,279,0.0,1.0,75,0.00,,SCT,0.00,0.00,VWS V14.01,2013-05-28 01:19:00,
2013-05-27 21:24:00,64.3,56.2,30.29,West,279,0.0,1.0,75,0.00,,SCT,0.00,0.00,VWS V14.01,2013-05-28 01:24:00,
2013-05-27 21:29:00,64.3,56.2,30.29,West,279,0.0,1.0,75,0.00,,SCT,0.00,0.00,VWS V14.01,2013-05-28 01:29:00,
2013-05-27 21:34:00,64.2,56.1,30.29,West,279,0.0,1.0,75,0.00,,SCT,0.00,0.00,VWS V14.01,2013-05-28 01:34:00,
2013-05-27 21:39:00,64.1,56.0,30.29,West,279,0.0,1.0,75,0.00,,SCT,0.00,0.00,VWS V14.01,2013-05-28 01:39:00,
2013-05-27 21:44:00,63.7,56.0,30.30,West,279,0.0,1.0,76,0.00,,SCT,0.00,0.00,VWS V14.01,2013-05-28 01:44:00,
2013-05-27 21:49:00,63.2,55.2,30.30,West,279,0.0,2.0,75,0.00,,SCT,0.00,0.00,VWS V14.01,2013-05-28 01:49:00,
2013-05-27 21:54:00,63.2,54.8,30.30,West,279,1.0,3.0,74,0.00,,SCT,0.00,0.00,VWS V14.01,2013-05-28 01:54:00,
2013-05-27 21:59:00,63.6,55.2,30.30,West,279,0.0,3.0,74,0.00,,SCT,0.00,0.00,VWS V14.01,2013-05-28 01:59:00,
2013-05-27 22:00:00,63.3,54.9,30.30,West,279,2.0,3.0,74,0.00,,SCT,0.00,0.00,VWS V14.01,2013-05-28 02:00:00,
2013-05-27 22:04:00,63.7,55.3,30.30,West,279,0.0,3.0,74,0.00,,SCT,0.00,0.00,VWS V14.01,2013-05-28 02:04:00,
2013-05-27 22:09:00,63.5,55.1,30.31,West,279,0.0,3.0,74,0.00,,SCT,0.00,0.00,VWS V14.01,2013-05-28 02:09:00,
2013-05-27 22:14:00,63.8,55.4,30.31,West,279,0.0,3.0,74,0.00,,SCT,0.00,0.00,VWS V14.01,2013-05-28 02:14:00,
2013-05-27 22:19:00,63.7,55.3,30.31,West,279,0.0,3.0,74,0.00,,SCT,0.00,0.00,VWS V14.01,2013-05-28 02:19:00,
2013-05-27 22:24:00,63.5,55.4,30.31,West,279,0.0,3.0,75,0.00,,SCT,0.00,0.00,VWS V14.01,2013-05-28 02:24:00,
2013-05-27 22:29:00,63.4,55.0,30.31,West,279,0.0,3.0,74,0.00,,SCT,0.00,0.00,VWS V14.01,2013-05-28 02:29:00,
2013-05-27 22:34:00,63.5,55.4,30.31,West,279,0.0,3.0,75,0.00,,SCT,0.00,0.00,VWS V14.01,2013-05-28 02:34:00,
2013-05-27 22:39:00,63.6,55.5,30.31,West,279,0.0,3.0,75,0.00,,SCT,0.00,0.00,VWS V14.01,2013-05-28 02:39:00,
2013-05-27 22:44:00,63.4,55.3,30.31,West,279,0.0,3.0,75,0.00,,SCT,0.00,0.00,VWS V14.01,2013-05-28 02:44:00,
2013-05-27 22:49:00,63.4,55.0,30.31,West,279,0.0,3.0,74,0.00,,SCT,0.00,0.00,VWS V14.01,2013-05-28 02:49:00,
2013-05-27 22:53:00,63.3,54.9,30.31,West,279,0.0,0.0,74,0.00,,SCT,0.00,0.00,VWS V14.01,2013-05-28 02:53:00,
2013-05-27 22:58:00,63.1,55.1,30.31,West,279,0.0,1.0,75,0.00,,SCT,0.00,0.00,VWS V14.01,2013-05-28 02:58:00,
2013-05-27 23:00:00,63.3,54.9,30.31,West,279,0.0,3.0,74,0.00,,SCT,0.00,0.00,VWS V14.01,2013-05-28 03:00:00,
2013-05-27 23:03:00,63.1,55.4,30.31,West,279,0.0,1.0,76,0.00,,SCT,0.00,0.00,VWS V14.01,2013-05-28 03:03:00,
2013-05-27 23:08:00,63.1,55.8,30.31,West,279,0.0,1.0,77,0.00,,SCT,0.00,0.00,VWS V14.01,2013-05-28 03:08:00,
2013-05-27 23:13:00,63.0,56.0,30.31,West,279,0.0,1.0,78,0.00,,SCT,0.00,0.00,VWS V14.01,2013-05-28 03:13:00,
2013-05-27 23:18:00,62.7,56.1,30.31,West,279,0.0,1.0,79,0.00,,SCT,0.00,0.00,VWS V14.01,2013-05-28 03:18:00,
2013-05-27 23:23:00,62.5,56.2,30.31,West,279,0.0,1.0,80,0.00,,SCT,0.00,0.00,VWS V14.01,2013-05-28 03:23:00,
2013-05-27 23:28:00,62.5,56.6,30.31,West,279,0.0,1.0,81,0.00,,SCT,0.00,0.00,VWS V14.01,2013-05-28 03:28:00,
2013-05-27 23:33:00,62.2,56.3,30.31,West,279,0.0,1.0,81,0.00,,SCT,0.00,0.00,VWS V14.01,2013-05-28 03:33:00,
2013-05-27 23:38:00,62.3,56.7,30.31,West,279,0.0,1.0,82,0.00,,SCT,0.00,0.00,VWS V14.01,2013-05-28 03:38:00,
2013-05-27 23:43:00,62.2,55.6,30.31,West,279,0.0,2.0,79,0.00,,SCT,0.00,0.00,VWS V14.01,2013-05-28 03:43:00,
2013-05-27 23:48:00,62.4,55.5,30.31,West,279,0.0,2.0,78,0.00,,SCT,0.00,0.00,VWS V14.01,2013-05-28 03:48:00,
2013-05-27 23:53:00,62.6,56.0,30.31,West,279,0.0,0.0,79,0.00,,SCT,0.00,0.00,VWS V14.01,2013-05-28 03:53:00,
2013-05-27 23:58:00,62.9,55.9,30.31,West,279,0.0,0.0,78,0.00,,SCT,0.00,0.00,VWS V14.01,2013-05-28 03:58:00,